sensor_id;sensor_type;location;lat;lon;timestamp;P1;durP1;ratioP1;P2;durP2;ratioP2
49223;SDS011;35050;51.316;5.994;2024-02-04T00:00:24;8.80;;;7.90;;
49223;SDS011;35050;51.316;5.994;2024-02-04T00:02:49;9.85;;;8.85;;
49223;SDS011;35050;51.316;5.994;2024-02-04T00:05:15;8.73;;;7.93;;
49223;SDS011;35050;51.316;5.994;2024-02-04T00:07:41;9.57;;;8.57;;
49223;SDS011;35050;51.316;5.994;2024-02-04T00:10:06;9.57;;;8.43;;
49223;SDS011;35050;51.316;5.994;2024-02-04T00:12:32;9.20;;;8.30;;
49223;SDS011;35050;51.316;5.994;2024-02-04T00:14:58;9.80;;;8.80;;
49223;SDS011;35050;51.316;5.994;2024-02-04T00:17:24;9.50;;;8.35;;
49223;SDS011;35050;51.316;5.994;2024-02-04T00:19:54;8.82;;;7.85;;
49223;SDS011;35050;51.316;5.994;2024-02-04T00:22:21;8.88;;;7.57;;
49223;SDS011;35050;51.316;5.994;2024-02-04T00:24:47;8.88;;;7.97;;
49223;SDS011;35050;51.316;5.994;2024-02-04T00:27:12;8.52;;;7.72;;
49223;SDS011;35050;51.316;5.994;2024-02-04T00:29:38;9.38;;;8.40;;
49223;SDS011;35050;51.316;5.994;2024-02-04T00:32:04;8.38;;;7.57;;
49223;SDS011;35050;51.316;5.994;2024-02-04T00:34:30;8.77;;;7.80;;
49223;SDS011;35050;51.316;5.994;2024-02-04T00:36:55;10.75;;;8.80;;
49223;SDS011;35050;51.316;5.994;2024-02-04T00:39:21;8.40;;;7.60;;
49223;SDS011;35050;51.316;5.994;2024-02-04T00:41:46;8.43;;;7.63;;
49223;SDS011;35050;51.316;5.994;2024-02-04T00:44:12;9.07;;;8.18;;
49223;SDS011;35050;51.316;5.994;2024-02-04T00:46:38;8.20;;;7.40;;
49223;SDS011;35050;51.316;5.994;2024-02-04T00:49:03;7.90;;;7.20;;
49223;SDS011;35050;51.316;5.994;2024-02-04T00:51:29;8.05;;;7.25;;
49223;SDS011;35050;51.316;5.994;2024-02-04T00:53:55;7.68;;;6.68;;
49223;SDS011;35050;51.316;5.994;2024-02-04T00:56:20;7.65;;;6.85;;
49223;SDS011;35050;51.316;5.994;2024-02-04T00:58:46;7.28;;;6.57;;
49223;SDS011;35050;51.316;5.994;2024-02-04T01:01:12;7.53;;;6.72;;
49223;SDS011;35050;51.316;5.994;2024-02-04T01:03:37;7.10;;;6.40;;
49223;SDS011;35050;51.316;5.994;2024-02-04T01:06:03;7.03;;;6.43;;
49223;SDS011;35050;51.316;5.994;2024-02-04T01:08:29;7.30;;;6.15;;
49223;SDS011;35050;51.316;5.994;2024-02-04T01:10:55;6.75;;;6.10;;
49223;SDS011;35050;51.316;5.994;2024-02-04T01:13:21;7.07;;;6.47;;
49223;SDS011;35050;51.316;5.994;2024-02-04T01:15:46;7.28;;;6.57;;
49223;SDS011;35050;51.316;5.994;2024-02-04T01:18:12;7.43;;;6.70;;
49223;SDS011;35050;51.316;5.994;2024-02-04T01:20:38;7.25;;;6.55;;
49223;SDS011;35050;51.316;5.994;2024-02-04T01:23:03;7.25;;;6.45;;
49223;SDS011;35050;51.316;5.994;2024-02-04T01:25:29;7.97;;;7.28;;
49223;SDS011;35050;51.316;5.994;2024-02-04T01:27:54;7.90;;;7.20;;
49223;SDS011;35050;51.316;5.994;2024-02-04T01:30:20;7.22;;;6.40;;
49223;SDS011;35050;51.316;5.994;2024-02-04T01:32:46;7.78;;;7.00;;
49223;SDS011;35050;51.316;5.994;2024-02-04T01:35:11;8.27;;;7.57;;
49223;SDS011;35050;51.316;5.994;2024-02-04T01:37:37;8.10;;;7.30;;
49223;SDS011;35050;51.316;5.994;2024-02-04T01:40:03;7.60;;;6.90;;
49223;SDS011;35050;51.316;5.994;2024-02-04T01:42:30;8.20;;;7.32;;
49223;SDS011;35050;51.316;5.994;2024-02-04T01:44:56;8.13;;;7.32;;
49223;SDS011;35050;51.316;5.994;2024-02-04T01:47:22;9.25;;;7.57;;
49223;SDS011;35050;51.316;5.994;2024-02-04T01:49:48;7.57;;;6.82;;
49223;SDS011;35050;51.316;5.994;2024-02-04T01:52:13;7.13;;;6.53;;
49223;SDS011;35050;51.316;5.994;2024-02-04T01:54:40;7.75;;;6.97;;
49223;SDS011;35050;51.316;5.994;2024-02-04T01:57:08;6.88;;;6.28;;
49223;SDS011;35050;51.316;5.994;2024-02-04T01:59:35;7.53;;;6.82;;
49223;SDS011;35050;51.316;5.994;2024-02-04T02:02:06;8.77;;;7.85;;
49223;SDS011;35050;51.316;5.994;2024-02-04T02:04:32;8.45;;;7.03;;
49223;SDS011;35050;51.316;5.994;2024-02-04T02:06:58;8.10;;;7.40;;
49223;SDS011;35050;51.316;5.994;2024-02-04T02:09:25;7.95;;;7.15;;
49223;SDS011;35050;51.316;5.994;2024-02-04T02:12:01;9.52;;;7.43;;
49223;SDS011;35050;51.316;5.994;2024-02-04T02:14:35;8.48;;;7.57;;
49223;SDS011;35050;51.316;5.994;2024-02-04T02:17:06;8.68;;;7.88;;
49223;SDS011;35050;51.316;5.994;2024-02-04T02:19:59;8.65;;;7.72;;
49223;SDS011;35050;51.316;5.994;2024-02-04T02:22:49;8.82;;;8.02;;
49223;SDS011;35050;51.316;5.994;2024-02-04T02:25:25;9.48;;;8.57;;
49223;SDS011;35050;51.316;5.994;2024-02-04T02:27:53;9.95;;;9.05;;
49223;SDS011;35050;51.316;5.994;2024-02-04T02:30:19;8.95;;;8.13;;
49223;SDS011;35050;51.316;5.994;2024-02-04T02:32:44;9.15;;;8.35;;
49223;SDS011;35050;51.316;5.994;2024-02-04T02:35:12;10.25;;;8.50;;
49223;SDS011;35050;51.316;5.994;2024-02-04T02:37:40;10.30;;;9.23;;
49223;SDS011;35050;51.316;5.994;2024-02-04T02:42:59;10.27;;;9.32;;
49223;SDS011;35050;51.316;5.994;2024-02-04T02:45:27;9.85;;;8.85;;
49223;SDS011;35050;51.316;5.994;2024-02-04T02:47:53;9.75;;;8.75;;
49223;SDS011;35050;51.316;5.994;2024-02-04T02:50:20;11.30;;;10.23;;
49223;SDS011;35050;51.316;5.994;2024-02-04T02:52:46;11.70;;;10.60;;
49223;SDS011;35050;51.316;5.994;2024-02-04T02:55:12;12.25;;;11.13;;
49223;SDS011;35050;51.316;5.994;2024-02-04T02:57:38;15.70;;;12.90;;
49223;SDS011;35050;51.316;5.994;2024-02-04T03:00:04;15.68;;;13.77;;
49223;SDS011;35050;51.316;5.994;2024-02-04T03:02:31;14.52;;;13.13;;
49223;SDS011;35050;51.316;5.994;2024-02-04T03:04:57;14.25;;;12.85;;
49223;SDS011;35050;51.316;5.994;2024-02-04T03:07:23;14.65;;;13.07;;
49223;SDS011;35050;51.316;5.994;2024-02-04T03:09:48;14.75;;;13.20;;
49223;SDS011;35050;51.316;5.994;2024-02-04T03:12:14;15.32;;;13.70;;
49223;SDS011;35050;51.316;5.994;2024-02-04T03:14:39;14.85;;;13.32;;
49223;SDS011;35050;51.316;5.994;2024-02-04T03:17:05;17.98;;;13.63;;
49223;SDS011;35050;51.316;5.994;2024-02-04T03:19:31;17.92;;;14.05;;
49223;SDS011;35050;51.316;5.994;2024-02-04T03:21:56;15.43;;;13.85;;
49223;SDS011;35050;51.316;5.994;2024-02-04T03:24:22;13.82;;;12.40;;
49223;SDS011;35050;51.316;5.994;2024-02-04T03:26:48;15.23;;;12.95;;
49223;SDS011;35050;51.316;5.994;2024-02-04T03:29:13;19.15;;;16.08;;
49223;SDS011;35050;51.316;5.994;2024-02-04T03:31:39;21.15;;;16.52;;
49223;SDS011;35050;51.316;5.994;2024-02-04T03:34:04;19.52;;;16.60;;
49223;SDS011;35050;51.316;5.994;2024-02-04T03:36:30;19.13;;;16.88;;
49223;SDS011;35050;51.316;5.994;2024-02-04T03:38:56;17.77;;;15.57;;
49223;SDS011;35050;51.316;5.994;2024-02-04T03:41:22;21.13;;;16.02;;
49223;SDS011;35050;51.316;5.994;2024-02-04T03:43:48;21.67;;;17.58;;
49223;SDS011;35050;51.316;5.994;2024-02-04T03:46:14;20.92;;;17.50;;
49223;SDS011;35050;51.316;5.994;2024-02-04T03:48:40;20.85;;;16.17;;
49223;SDS011;35050;51.316;5.994;2024-02-04T03:51:06;18.77;;;16.77;;
49223;SDS011;35050;51.316;5.994;2024-02-04T03:53:31;20.98;;;17.60;;
49223;SDS011;35050;51.316;5.994;2024-02-04T03:55:58;18.48;;;16.45;;
49223;SDS011;35050;51.316;5.994;2024-02-04T03:58:23;30.23;;;20.27;;
49223;SDS011;35050;51.316;5.994;2024-02-04T04:00:54;21.42;;;18.10;;
49223;SDS011;35050;51.316;5.994;2024-02-04T04:03:21;25.67;;;17.52;;
49223;SDS011;35050;51.316;5.994;2024-02-04T04:05:47;21.10;;;18.77;;
49223;SDS011;35050;51.316;5.994;2024-02-04T04:08:13;24.67;;;19.27;;
49223;SDS011;35050;51.316;5.994;2024-02-04T04:10:38;21.45;;;18.60;;
49223;SDS011;35050;51.316;5.994;2024-02-04T04:13:04;20.38;;;18.20;;
49223;SDS011;35050;51.316;5.994;2024-02-04T04:15:30;19.95;;;17.67;;
49223;SDS011;35050;51.316;5.994;2024-02-04T04:17:55;22.80;;;20.20;;
49223;SDS011;35050;51.316;5.994;2024-02-04T04:20:21;24.08;;;19.05;;
49223;SDS011;35050;51.316;5.994;2024-02-04T04:22:46;21.42;;;19.15;;
49223;SDS011;35050;51.316;5.994;2024-02-04T04:25:12;24.35;;;19.90;;
49223;SDS011;35050;51.316;5.994;2024-02-04T04:27:39;28.17;;;22.02;;
49223;SDS011;35050;51.316;5.994;2024-02-04T04:30:04;25.05;;;22.38;;
49223;SDS011;35050;51.316;5.994;2024-02-04T04:32:31;23.67;;;21.17;;
49223;SDS011;35050;51.316;5.994;2024-02-04T04:34:57;28.13;;;21.52;;
49223;SDS011;35050;51.316;5.994;2024-02-04T04:37:23;23.08;;;20.45;;
49223;SDS011;35050;51.316;5.994;2024-02-04T04:39:48;22.15;;;19.92;;
49223;SDS011;35050;51.316;5.994;2024-02-04T04:42:14;29.40;;;22.65;;
49223;SDS011;35050;51.316;5.994;2024-02-04T04:44:39;27.30;;;23.60;;
49223;SDS011;35050;51.316;5.994;2024-02-04T04:47:05;26.70;;;22.60;;
49223;SDS011;35050;51.316;5.994;2024-02-04T04:49:31;23.92;;;21.40;;
49223;SDS011;35050;51.316;5.994;2024-02-04T04:51:57;27.80;;;22.15;;
49223;SDS011;35050;51.316;5.994;2024-02-04T04:54:23;30.33;;;23.30;;
49223;SDS011;35050;51.316;5.994;2024-02-04T04:56:48;26.42;;;22.00;;
49223;SDS011;35050;51.316;5.994;2024-02-04T04:59:15;28.17;;;23.17;;
49223;SDS011;35050;51.316;5.994;2024-02-04T05:01:48;31.45;;;24.55;;
49223;SDS011;35050;51.316;5.994;2024-02-04T05:04:15;25.63;;;21.45;;
49223;SDS011;35050;51.316;5.994;2024-02-04T05:06:41;30.02;;;23.20;;
49223;SDS011;35050;51.316;5.994;2024-02-04T05:09:07;27.40;;;22.20;;
49223;SDS011;35050;51.316;5.994;2024-02-04T05:11:33;29.50;;;22.17;;
49223;SDS011;35050;51.316;5.994;2024-02-04T05:13:59;26.80;;;20.42;;
49223;SDS011;35050;51.316;5.994;2024-02-04T05:16:25;27.60;;;21.00;;
49223;SDS011;35050;51.316;5.994;2024-02-04T05:18:50;25.55;;;21.25;;
49223;SDS011;35050;51.316;5.994;2024-02-04T05:21:16;26.83;;;21.50;;
49223;SDS011;35050;51.316;5.994;2024-02-04T05:23:41;26.70;;;20.92;;
49223;SDS011;35050;51.316;5.994;2024-02-04T05:26:07;28.20;;;21.60;;
49223;SDS011;35050;51.316;5.994;2024-02-04T05:28:32;27.42;;;20.92;;
49223;SDS011;35050;51.316;5.994;2024-02-04T05:30:58;26.40;;;19.35;;
49223;SDS011;35050;51.316;5.994;2024-02-04T05:33:26;23.20;;;19.70;;
49223;SDS011;35050;51.316;5.994;2024-02-04T05:35:51;27.15;;;20.98;;
49223;SDS011;35050;51.316;5.994;2024-02-04T05:38:17;25.63;;;20.00;;
49223;SDS011;35050;51.316;5.994;2024-02-04T05:40:42;32.65;;;20.70;;
49223;SDS011;35050;51.316;5.994;2024-02-04T05:43:09;27.35;;;19.98;;
49223;SDS011;35050;51.316;5.994;2024-02-04T05:45:36;25.38;;;19.55;;
49223;SDS011;35050;51.316;5.994;2024-02-04T05:48:03;25.77;;;17.58;;
49223;SDS011;35050;51.316;5.994;2024-02-04T05:50:29;25.63;;;17.75;;
49223;SDS011;35050;51.316;5.994;2024-02-04T05:52:55;25.77;;;17.92;;
49223;SDS011;35050;51.316;5.994;2024-02-04T05:55:20;26.58;;;18.50;;
49223;SDS011;35050;51.316;5.994;2024-02-04T05:57:46;28.70;;;18.38;;
49223;SDS011;35050;51.316;5.994;2024-02-04T06:00:12;24.27;;;19.33;;
49223;SDS011;35050;51.316;5.994;2024-02-04T06:02:38;28.17;;;18.70;;
49223;SDS011;35050;51.316;5.994;2024-02-04T06:05:03;24.70;;;18.08;;
49223;SDS011;35050;51.316;5.994;2024-02-04T06:07:29;22.92;;;18.23;;
49223;SDS011;35050;51.316;5.994;2024-02-04T06:09:55;25.65;;;18.52;;
49223;SDS011;35050;51.316;5.994;2024-02-04T06:12:21;26.73;;;16.25;;
49223;SDS011;35050;51.316;5.994;2024-02-04T06:14:47;25.35;;;15.60;;
49223;SDS011;35050;51.316;5.994;2024-02-04T06:17:12;21.70;;;15.88;;
49223;SDS011;35050;51.316;5.994;2024-02-04T06:19:38;23.00;;;16.88;;
49223;SDS011;35050;51.316;5.994;2024-02-04T06:22:04;21.25;;;16.50;;
49223;SDS011;35050;51.316;5.994;2024-02-04T06:24:29;17.35;;;14.23;;
49223;SDS011;35050;51.316;5.994;2024-02-04T06:26:55;20.80;;;15.55;;
49223;SDS011;35050;51.316;5.994;2024-02-04T06:29:21;18.67;;;14.40;;
49223;SDS011;35050;51.316;5.994;2024-02-04T06:31:47;23.00;;;15.43;;
49223;SDS011;35050;51.316;5.994;2024-02-04T06:34:12;24.30;;;16.00;;
49223;SDS011;35050;51.316;5.994;2024-02-04T06:36:38;19.50;;;14.48;;
49223;SDS011;35050;51.316;5.994;2024-02-04T06:39:08;19.90;;;16.17;;
49223;SDS011;35050;51.316;5.994;2024-02-04T06:41:33;20.58;;;17.25;;
49223;SDS011;35050;51.316;5.994;2024-02-04T06:43:59;16.65;;;13.50;;
49223;SDS011;35050;51.316;5.994;2024-02-04T06:46:27;17.10;;;15.00;;
49223;SDS011;35050;51.316;5.994;2024-02-04T06:48:53;17.38;;;13.85;;
49223;SDS011;35050;51.316;5.994;2024-02-04T06:51:19;16.35;;;14.63;;
49223;SDS011;35050;51.316;5.994;2024-02-04T06:53:45;17.42;;;14.00;;
49223;SDS011;35050;51.316;5.994;2024-02-04T06:56:11;19.02;;;14.98;;
49223;SDS011;35050;51.316;5.994;2024-02-04T06:58:37;18.35;;;13.65;;
49223;SDS011;35050;51.316;5.994;2024-02-04T07:01:03;22.25;;;14.60;;
49223;SDS011;35050;51.316;5.994;2024-02-04T07:03:29;17.88;;;14.82;;
49223;SDS011;35050;51.316;5.994;2024-02-04T07:05:55;15.88;;;13.85;;
49223;SDS011;35050;51.316;5.994;2024-02-04T07:08:21;17.55;;;14.77;;
49223;SDS011;35050;51.316;5.994;2024-02-04T07:10:47;18.55;;;14.43;;
49223;SDS011;35050;51.316;5.994;2024-02-04T07:13:12;17.40;;;13.77;;
49223;SDS011;35050;51.316;5.994;2024-02-04T07:15:38;14.18;;;11.55;;
49223;SDS011;35050;51.316;5.994;2024-02-04T07:18:04;15.15;;;13.25;;
49223;SDS011;35050;51.316;5.994;2024-02-04T07:20:30;15.45;;;13.27;;
49223;SDS011;35050;51.316;5.994;2024-02-04T07:22:55;19.58;;;14.95;;
49223;SDS011;35050;51.316;5.994;2024-02-04T07:25:21;14.95;;;13.27;;
49223;SDS011;35050;51.316;5.994;2024-02-04T07:27:47;13.52;;;12.13;;
49223;SDS011;35050;51.316;5.994;2024-02-04T07:30:13;15.93;;;13.15;;
49223;SDS011;35050;51.316;5.994;2024-02-04T07:32:39;19.85;;;13.00;;
49223;SDS011;35050;51.316;5.994;2024-02-04T07:35:05;14.35;;;12.57;;
49223;SDS011;35050;51.316;5.994;2024-02-04T07:37:31;15.13;;;11.65;;
49223;SDS011;35050;51.316;5.994;2024-02-04T07:39:58;14.60;;;11.40;;
49223;SDS011;35050;51.316;5.994;2024-02-04T07:42:24;14.70;;;11.82;;
49223;SDS011;35050;51.316;5.994;2024-02-04T07:44:50;14.73;;;10.93;;
49223;SDS011;35050;51.316;5.994;2024-02-04T07:47:16;14.27;;;11.85;;
49223;SDS011;35050;51.316;5.994;2024-02-04T07:49:42;14.00;;;11.15;;
49223;SDS011;35050;51.316;5.994;2024-02-04T07:52:07;13.57;;;11.13;;
49223;SDS011;35050;51.316;5.994;2024-02-04T07:54:33;15.73;;;11.52;;
49223;SDS011;35050;51.316;5.994;2024-02-04T07:56:59;13.43;;;10.98;;
49223;SDS011;35050;51.316;5.994;2024-02-04T07:59:24;16.48;;;11.18;;
49223;SDS011;35050;51.316;5.994;2024-02-04T08:01:50;12.55;;;10.40;;
49223;SDS011;35050;51.316;5.994;2024-02-04T08:04:16;14.10;;;10.65;;
49223;SDS011;35050;51.316;5.994;2024-02-04T08:06:41;15.02;;;11.38;;
49223;SDS011;35050;51.316;5.994;2024-02-04T08:09:07;14.43;;;11.75;;
49223;SDS011;35050;51.316;5.994;2024-02-04T08:11:33;17.65;;;10.82;;
49223;SDS011;35050;51.316;5.994;2024-02-04T08:13:59;15.85;;;11.30;;
49223;SDS011;35050;51.316;5.994;2024-02-04T08:16:25;13.32;;;11.02;;
49223;SDS011;35050;51.316;5.994;2024-02-04T08:18:51;14.73;;;10.98;;
49223;SDS011;35050;51.316;5.994;2024-02-04T08:21:16;13.20;;;10.98;;
49223;SDS011;35050;51.316;5.994;2024-02-04T08:23:43;15.77;;;10.98;;
49223;SDS011;35050;51.316;5.994;2024-02-04T08:26:09;15.98;;;11.55;;
49223;SDS011;35050;51.316;5.994;2024-02-04T08:28:35;16.67;;;10.48;;
49223;SDS011;35050;51.316;5.994;2024-02-04T08:31:01;12.95;;;11.02;;
49223;SDS011;35050;51.316;5.994;2024-02-04T08:33:26;13.18;;;9.95;;
49223;SDS011;35050;51.316;5.994;2024-02-04T08:35:52;14.27;;;11.05;;
49223;SDS011;35050;51.316;5.994;2024-02-04T08:38:18;12.85;;;10.48;;
49223;SDS011;35050;51.316;5.994;2024-02-04T08:40:43;16.48;;;10.32;;
49223;SDS011;35050;51.316;5.994;2024-02-04T08:43:09;16.42;;;11.02;;
49223;SDS011;35050;51.316;5.994;2024-02-04T08:45:34;14.95;;;11.38;;
49223;SDS011;35050;51.316;5.994;2024-02-04T08:48:00;16.17;;;10.98;;
49223;SDS011;35050;51.316;5.994;2024-02-04T08:50:25;15.18;;;10.25;;
49223;SDS011;35050;51.316;5.994;2024-02-04T08:52:51;12.73;;;9.57;;
49223;SDS011;35050;51.316;5.994;2024-02-04T08:55:17;11.13;;;9.90;;
49223;SDS011;35050;51.316;5.994;2024-02-04T08:57:42;13.35;;;9.60;;
49223;SDS011;35050;51.316;5.994;2024-02-04T09:00:09;11.00;;;9.32;;
49223;SDS011;35050;51.316;5.994;2024-02-04T09:02:36;13.40;;;9.07;;
49223;SDS011;35050;51.316;5.994;2024-02-04T09:05:03;10.68;;;8.73;;
49223;SDS011;35050;51.316;5.994;2024-02-04T09:07:29;10.82;;;7.88;;
49223;SDS011;35050;51.316;5.994;2024-02-04T09:09:56;12.63;;;8.52;;
49223;SDS011;35050;51.316;5.994;2024-02-04T09:12:22;10.48;;;8.13;;
49223;SDS011;35050;51.316;5.994;2024-02-04T09:14:47;12.23;;;8.45;;
49223;SDS011;35050;51.316;5.994;2024-02-04T09:17:13;10.25;;;7.53;;
49223;SDS011;35050;51.316;5.994;2024-02-04T09:19:39;11.23;;;7.30;;
49223;SDS011;35050;51.316;5.994;2024-02-04T09:22:04;10.27;;;7.32;;
49223;SDS011;35050;51.316;5.994;2024-02-04T09:24:30;9.63;;;7.18;;
49223;SDS011;35050;51.316;5.994;2024-02-04T09:26:57;10.27;;;7.22;;
49223;SDS011;35050;51.316;5.994;2024-02-04T09:29:22;9.63;;;6.60;;
49223;SDS011;35050;51.316;5.994;2024-02-04T09:31:48;10.50;;;6.55;;
49223;SDS011;35050;51.316;5.994;2024-02-04T09:34:18;9.82;;;5.93;;
49223;SDS011;35050;51.316;5.994;2024-02-04T09:36:44;9.63;;;6.35;;
49223;SDS011;35050;51.316;5.994;2024-02-04T09:39:10;10.30;;;6.75;;
49223;SDS011;35050;51.316;5.994;2024-02-04T09:41:36;9.98;;;7.35;;
49223;SDS011;35050;51.316;5.994;2024-02-04T09:44:02;8.30;;;6.05;;
49223;SDS011;35050;51.316;5.994;2024-02-04T09:46:29;11.95;;;6.18;;
49223;SDS011;35050;51.316;5.994;2024-02-04T09:48:55;8.68;;;6.53;;
49223;SDS011;35050;51.316;5.994;2024-02-04T09:51:21;7.88;;;6.13;;
49223;SDS011;35050;51.316;5.994;2024-02-04T09:53:49;8.63;;;6.32;;
49223;SDS011;35050;51.316;5.994;2024-02-04T09:56:18;8.65;;;6.28;;
49223;SDS011;35050;51.316;5.994;2024-02-04T09:58:47;11.98;;;7.25;;
49223;SDS011;35050;51.316;5.994;2024-02-04T10:01:13;8.68;;;6.15;;
49223;SDS011;35050;51.316;5.994;2024-02-04T10:03:40;10.15;;;7.32;;
49223;SDS011;35050;51.316;5.994;2024-02-04T10:06:06;10.10;;;7.35;;
49223;SDS011;35050;51.316;5.994;2024-02-04T10:08:32;12.23;;;7.68;;
49223;SDS011;35050;51.316;5.994;2024-02-04T10:10:58;11.13;;;7.82;;
49223;SDS011;35050;51.316;5.994;2024-02-04T10:13:24;10.20;;;7.85;;
49223;SDS011;35050;51.316;5.994;2024-02-04T10:15:50;9.52;;;7.47;;
49223;SDS011;35050;51.316;5.994;2024-02-04T10:18:17;10.90;;;7.72;;
49223;SDS011;35050;51.316;5.994;2024-02-04T10:20:43;9.02;;;7.32;;
49223;SDS011;35050;51.316;5.994;2024-02-04T10:23:08;10.23;;;7.53;;
49223;SDS011;35050;51.316;5.994;2024-02-04T10:25:34;10.10;;;7.55;;
49223;SDS011;35050;51.316;5.994;2024-02-04T10:28:00;10.00;;;6.88;;
49223;SDS011;35050;51.316;5.994;2024-02-04T10:30:26;12.00;;;7.53;;
49223;SDS011;35050;51.316;5.994;2024-02-04T10:32:52;8.27;;;6.97;;
49223;SDS011;35050;51.316;5.994;2024-02-04T10:35:22;11.05;;;7.38;;
49223;SDS011;35050;51.316;5.994;2024-02-04T10:37:51;8.70;;;7.10;;
49223;SDS011;35050;51.316;5.994;2024-02-04T10:40:18;12.07;;;8.07;;
49223;SDS011;35050;51.316;5.994;2024-02-04T10:42:44;11.50;;;7.85;;
49223;SDS011;35050;51.316;5.994;2024-02-04T10:45:10;10.43;;;7.43;;
49223;SDS011;35050;51.316;5.994;2024-02-04T10:47:37;9.48;;;7.65;;
49223;SDS011;35050;51.316;5.994;2024-02-04T10:50:04;12.88;;;8.23;;
49223;SDS011;35050;51.316;5.994;2024-02-04T10:52:39;12.48;;;7.78;;
49223;SDS011;35050;51.316;5.994;2024-02-04T10:55:10;13.63;;;7.78;;
49223;SDS011;35050;51.316;5.994;2024-02-04T10:57:39;11.75;;;7.85;;
49223;SDS011;35050;51.316;5.994;2024-02-04T11:00:06;10.55;;;7.50;;
49223;SDS011;35050;51.316;5.994;2024-02-04T11:02:33;10.60;;;7.55;;
49223;SDS011;35050;51.316;5.994;2024-02-04T11:05:02;11.82;;;6.97;;
49223;SDS011;35050;51.316;5.994;2024-02-04T11:07:32;8.85;;;7.38;;
49223;SDS011;35050;51.316;5.994;2024-02-04T11:10:01;10.88;;;7.40;;
49223;SDS011;35050;51.316;5.994;2024-02-04T11:12:28;9.27;;;6.38;;
49223;SDS011;35050;51.316;5.994;2024-02-04T11:14:57;8.45;;;6.15;;
49223;SDS011;35050;51.316;5.994;2024-02-04T11:25:56;10.10;;;6.50;;
49223;SDS011;35050;51.316;5.994;2024-02-04T11:28:23;8.18;;;6.60;;
49223;SDS011;35050;51.316;5.994;2024-02-04T11:30:53;8.55;;;6.55;;
49223;SDS011;35050;51.316;5.994;2024-02-04T11:33:20;9.95;;;6.40;;
49223;SDS011;35050;51.316;5.994;2024-02-04T11:35:57;10.10;;;6.20;;
49223;SDS011;35050;51.316;5.994;2024-02-04T11:38:35;8.10;;;6.00;;
49223;SDS011;35050;51.316;5.994;2024-02-04T11:41:04;8.18;;;5.75;;
49223;SDS011;35050;51.316;5.994;2024-02-04T11:43:34;11.77;;;6.35;;
49223;SDS011;35050;51.316;5.994;2024-02-04T11:46:04;8.55;;;5.95;;
49223;SDS011;35050;51.316;5.994;2024-02-04T11:48:30;8.77;;;5.68;;
49223;SDS011;35050;51.316;5.994;2024-02-04T11:50:57;8.80;;;5.65;;
49223;SDS011;35050;51.316;5.994;2024-02-04T11:53:25;8.25;;;5.80;;
49223;SDS011;35050;51.316;5.994;2024-02-04T11:55:55;9.00;;;6.13;;
49223;SDS011;35050;51.316;5.994;2024-02-04T11:58:21;10.77;;;6.30;;
49223;SDS011;35050;51.316;5.994;2024-02-04T12:00:47;7.53;;;5.88;;
49223;SDS011;35050;51.316;5.994;2024-02-04T12:03:14;7.88;;;5.15;;
49223;SDS011;35050;51.316;5.994;2024-02-04T12:05:40;7.43;;;5.43;;
49223;SDS011;35050;51.316;5.994;2024-02-04T12:08:06;9.57;;;5.85;;
49223;SDS011;35050;51.316;5.994;2024-02-04T12:10:36;9.50;;;6.13;;
49223;SDS011;35050;51.316;5.994;2024-02-04T12:13:02;10.65;;;6.32;;
49223;SDS011;35050;51.316;5.994;2024-02-04T12:15:29;10.38;;;5.70;;
49223;SDS011;35050;51.316;5.994;2024-02-04T12:18:06;10.25;;;5.90;;
49223;SDS011;35050;51.316;5.994;2024-02-04T12:20:35;9.88;;;5.65;;
49223;SDS011;35050;51.316;5.994;2024-02-04T12:23:03;8.02;;;5.28;;
49223;SDS011;35050;51.316;5.994;2024-02-04T12:25:30;7.80;;;5.22;;
49223;SDS011;35050;51.316;5.994;2024-02-04T12:27:59;9.68;;;5.57;;
49223;SDS011;35050;51.316;5.994;2024-02-04T12:30:28;7.07;;;5.03;;
49223;SDS011;35050;51.316;5.994;2024-02-04T12:35:26;6.93;;;5.03;;
49223;SDS011;35050;51.316;5.994;2024-02-04T12:37:56;6.60;;;4.70;;
49223;SDS011;35050;51.316;5.994;2024-02-04T12:40:23;10.55;;;4.53;;
49223;SDS011;35050;51.316;5.994;2024-02-04T12:42:56;7.85;;;4.80;;
49223;SDS011;35050;51.316;5.994;2024-02-04T12:45:25;8.82;;;4.30;;
49223;SDS011;35050;51.316;5.994;2024-02-04T12:47:51;6.88;;;4.80;;
49223;SDS011;35050;51.316;5.994;2024-02-04T12:50:18;11.13;;;4.78;;
49223;SDS011;35050;51.316;5.994;2024-02-04T12:52:45;8.85;;;4.90;;
49223;SDS011;35050;51.316;5.994;2024-02-04T12:55:24;10.27;;;4.60;;
49223;SDS011;35050;51.316;5.994;2024-02-04T12:58:14;9.02;;;4.80;;
49223;SDS011;35050;51.316;5.994;2024-02-04T13:00:43;7.82;;;4.47;;
49223;SDS011;35050;51.316;5.994;2024-02-04T13:03:09;8.95;;;4.93;;
49223;SDS011;35050;51.316;5.994;2024-02-04T13:05:35;6.25;;;4.50;;
49223;SDS011;35050;51.316;5.994;2024-02-04T13:08:02;9.93;;;4.28;;
49223;SDS011;35050;51.316;5.994;2024-02-04T13:10:30;5.70;;;4.20;;
49223;SDS011;35050;51.316;5.994;2024-02-04T13:13:05;7.45;;;4.50;;
49223;SDS011;35050;51.316;5.994;2024-02-04T13:15:35;7.38;;;4.53;;
49223;SDS011;35050;51.316;5.994;2024-02-04T13:18:04;11.95;;;4.88;;
49223;SDS011;35050;51.316;5.994;2024-02-04T13:20:31;7.38;;;4.40;;
49223;SDS011;35050;51.316;5.994;2024-02-04T13:22:57;6.93;;;4.22;;
49223;SDS011;35050;51.316;5.994;2024-02-04T13:25:25;6.07;;;3.92;;
49223;SDS011;35050;51.316;5.994;2024-02-04T13:27:51;9.13;;;5.47;;
49223;SDS011;35050;51.316;5.994;2024-02-04T13:30:18;9.82;;;4.65;;
49223;SDS011;35050;51.316;5.994;2024-02-04T13:32:44;8.55;;;4.65;;
49223;SDS011;35050;51.316;5.994;2024-02-04T13:35:10;6.20;;;4.32;;
49223;SDS011;35050;51.316;5.994;2024-02-04T13:37:39;11.82;;;4.85;;
49223;SDS011;35050;51.316;5.994;2024-02-04T13:40:07;6.63;;;4.38;;
49223;SDS011;35050;51.316;5.994;2024-02-04T13:42:33;6.40;;;4.65;;
49223;SDS011;35050;51.316;5.994;2024-02-04T13:45:00;6.47;;;4.13;;
49223;SDS011;35050;51.316;5.994;2024-02-04T13:47:26;9.07;;;4.70;;
49223;SDS011;35050;51.316;5.994;2024-02-04T13:49:52;10.38;;;5.28;;
49223;SDS011;35050;51.316;5.994;2024-02-04T13:52:18;8.15;;;5.35;;
49223;SDS011;35050;51.316;5.994;2024-02-04T13:54:44;6.90;;;4.28;;
49223;SDS011;35050;51.316;5.994;2024-02-04T13:57:09;6.95;;;4.20;;
49223;SDS011;35050;51.316;5.994;2024-02-04T13:59:36;13.85;;;5.20;;
49223;SDS011;35050;51.316;5.994;2024-02-04T14:02:01;7.28;;;4.70;;
49223;SDS011;35050;51.316;5.994;2024-02-04T14:04:27;8.10;;;4.32;;
49223;SDS011;35050;51.316;5.994;2024-02-04T14:06:56;8.50;;;4.63;;
49223;SDS011;35050;51.316;5.994;2024-02-04T14:09:22;7.50;;;3.85;;
49223;SDS011;35050;51.316;5.994;2024-02-04T14:11:47;6.20;;;4.57;;
49223;SDS011;35050;51.316;5.994;2024-02-04T14:14:13;7.90;;;4.55;;
49223;SDS011;35050;51.316;5.994;2024-02-04T14:16:39;8.52;;;4.18;;
49223;SDS011;35050;51.316;5.994;2024-02-04T14:19:05;6.43;;;3.90;;
49223;SDS011;35050;51.316;5.994;2024-02-04T14:21:30;4.65;;;3.22;;
49223;SDS011;35050;51.316;5.994;2024-02-04T14:23:56;6.35;;;3.83;;
49223;SDS011;35050;51.316;5.994;2024-02-04T14:26:22;13.30;;;4.38;;
49223;SDS011;35050;51.316;5.994;2024-02-04T14:28:48;6.43;;;3.72;;
49223;SDS011;35050;51.316;5.994;2024-02-04T14:31:13;7.82;;;3.88;;
49223;SDS011;35050;51.316;5.994;2024-02-04T14:33:39;5.00;;;3.40;;
49223;SDS011;35050;51.316;5.994;2024-02-04T14:36:06;6.50;;;3.65;;
49223;SDS011;35050;51.316;5.994;2024-02-04T14:38:32;6.50;;;3.85;;
49223;SDS011;35050;51.316;5.994;2024-02-04T14:40:58;7.65;;;3.67;;
49223;SDS011;35050;51.316;5.994;2024-02-04T14:43:24;5.05;;;3.40;;